sensor_id;sensor_type;location;lat;lon;timestamp;pressure;altitude;pressure_sealevel;temperature;humidity
61761;BME280;47664;51.660;-0.100;2022-11-18T00:02:02;98487.08;;;6.96;68.97
61761;BME280;47664;51.660;-0.100;2022-11-18T00:04:35;98484.21;;;7.34;68.79
61761;BME280;47664;51.660;-0.100;2022-11-18T00:07:07;98486.13;;;7.37;68.59
61761;BME280;47664;51.660;-0.100;2022-11-18T00:09:39;98492.17;;;7.34;68.83
61761;BME280;47664;51.660;-0.100;2022-11-18T00:12:11;98499.07;;;7.17;68.90
61761;BME280;47664;51.660;-0.100;2022-11-18T00:14:43;98498.94;;;7.25;69.32
61761;BME280;47664;51.660;-0.100;2022-11-18T00:17:15;98499.02;;;7.04;70.28
61761;BME280;47664;51.660;-0.100;2022-11-18T00:19:48;98503.09;;;6.95;69.99
61761;BME280;47664;51.660;-0.100;2022-11-18T00:22:20;98509.01;;;7.07;71.19
61761;BME280;47664;51.660;-0.100;2022-11-18T00:24:52;98507.53;;;6.79;70.79
61761;BME280;47664;51.660;-0.100;2022-11-18T00:27:23;98506.26;;;7.26;70.23
61761;BME280;47664;51.660;-0.100;2022-11-18T00:29:56;98514.96;;;7.08;70.91
61761;BME280;47664;51.660;-0.100;2022-11-18T00:32:28;98515.53;;;7.18;69.94
61761;BME280;47664;51.660;-0.100;2022-11-18T00:35:00;98526.64;;;7.04;70.17
61761;BME280;47664;51.660;-0.100;2022-11-18T00:37:32;98526.17;;;7.14;69.56
61761;BME280;47664;51.660;-0.100;2022-11-18T00:40:05;98531.48;;;7.21;70.22
61761;BME280;47664;51.660;-0.100;2022-11-18T00:42:37;98535.17;;;7.27;70.84
61761;BME280;47664;51.660;-0.100;2022-11-18T00:45:10;98538.11;;;7.04;70.20
61761;BME280;47664;51.660;-0.100;2022-11-18T00:47:42;98545.27;;;6.97;70.00
61761;BME280;47664;51.660;-0.100;2022-11-18T00:50:15;98548.41;;;7.05;69.51
61761;BME280;47664;51.660;-0.100;2022-11-18T00:52:47;98549.01;;;7.46;69.55
61761;BME280;47664;51.660;-0.100;2022-11-18T00:55:19;98549.29;;;7.11;69.35
61761;BME280;47664;51.660;-0.100;2022-11-18T00:57:52;98559.86;;;6.77;70.40
61761;BME280;47664;51.660;-0.100;2022-11-18T01:00:24;98559.30;;;7.11;69.63
61761;BME280;47664;51.660;-0.100;2022-11-18T01:02:56;98564.09;;;6.96;70.37
61761;BME280;47664;51.660;-0.100;2022-11-18T01:05:28;98561.64;;;6.44;70.23
61761;BME280;47664;51.660;-0.100;2022-11-18T01:08:00;98570.26;;;6.83;71.21
61761;BME280;47664;51.660;-0.100;2022-11-18T01:10:33;98568.22;;;7.29;68.80
61761;BME280;47664;51.660;-0.100;2022-11-18T01:13:05;98570.64;;;6.93;69.39
61761;BME280;47664;51.660;-0.100;2022-11-18T01:15:37;98573.36;;;7.03;70.31
61761;BME280;47664;51.660;-0.100;2022-11-18T01:18:10;98574.85;;;7.35;69.49
61761;BME280;47664;51.660;-0.100;2022-11-18T01:20:43;98578.10;;;7.22;68.13
61761;BME280;47664;51.660;-0.100;2022-11-18T01:23:15;98582.73;;;7.27;68.90
61761;BME280;47664;51.660;-0.100;2022-11-18T01:25:49;98581.56;;;6.51;69.23
61761;BME280;47664;51.660;-0.100;2022-11-18T01:28:22;98585.00;;;6.77;69.85
61761;BME280;47664;51.660;-0.100;2022-11-18T01:30:54;98589.06;;;7.17;69.78
61761;BME280;47664;51.660;-0.100;2022-11-18T01:33:34;98593.20;;;6.92;68.45
61761;BME280;47664;51.660;-0.100;2022-11-18T01:36:13;98600.67;;;7.85;67.86
61761;BME280;47664;51.660;-0.100;2022-11-18T01:38:46;98602.68;;;7.09;67.97
61761;BME280;47664;51.660;-0.100;2022-11-18T01:41:18;98604.99;;;7.07;68.01
61761;BME280;47664;51.660;-0.100;2022-11-18T01:43:53;98599.23;;;6.87;67.88
61761;BME280;47664;51.660;-0.100;2022-11-18T01:46:27;98606.83;;;7.17;67.81
61761;BME280;47664;51.660;-0.100;2022-11-18T01:48:59;98612.38;;;7.24;67.42
61761;BME280;47664;51.660;-0.100;2022-11-18T01:51:35;98614.69;;;6.99;68.07
61761;BME280;47664;51.660;-0.100;2022-11-18T01:54:08;98618.90;;;7.30;67.12
61761;BME280;47664;51.660;-0.100;2022-11-18T01:56:41;98619.93;;;7.41;66.10
61761;BME280;47664;51.660;-0.100;2022-11-18T01:59:11;98622.93;;;6.83;66.91
61761;BME280;47664;51.660;-0.100;2022-11-18T02:01:44;98624.99;;;7.20;67.47
61761;BME280;47664;51.660;-0.100;2022-11-18T02:04:16;98627.05;;;7.20;67.22
61761;BME280;47664;51.660;-0.100;2022-11-18T02:06:50;98632.67;;;6.91;66.59
61761;BME280;47664;51.660;-0.100;2022-11-18T02:09:22;98631.55;;;7.03;67.22
61761;BME280;47664;51.660;-0.100;2022-11-18T02:11:55;98633.50;;;6.91;66.72
61761;BME280;47664;51.660;-0.100;2022-11-18T02:14:29;98637.93;;;7.06;67.44
61761;BME280;47664;51.660;-0.100;2022-11-18T02:17:06;98641.67;;;7.14;66.32
61761;BME280;47664;51.660;-0.100;2022-11-18T02:19:54;98644.15;;;7.73;65.14
61761;BME280;47664;51.660;-0.100;2022-11-18T02:22:45;98651.01;;;7.56;65.51
61761;BME280;47664;51.660;-0.100;2022-11-18T02:25:21;98649.40;;;7.19;64.96
61761;BME280;47664;51.660;-0.100;2022-11-18T02:28:16;98652.11;;;7.26;65.81
61761;BME280;47664;51.660;-0.100;2022-11-18T02:30:56;98662.72;;;7.34;65.97
61761;BME280;47664;51.660;-0.100;2022-11-18T02:33:30;98661.98;;;7.07;64.82
61761;BME280;47664;51.660;-0.100;2022-11-18T02:36:08;98662.79;;;7.08;65.89
61761;BME280;47664;51.660;-0.100;2022-11-18T02:38:44;98669.04;;;7.26;65.40
61761;BME280;47664;51.660;-0.100;2022-11-18T02:41:15;98672.08;;;7.33;65.30
61761;BME280;47664;51.660;-0.100;2022-11-18T02:43:51;98669.20;;;7.42;65.06
61761;BME280;47664;51.660;-0.100;2022-11-18T02:46:24;98674.70;;;7.47;65.38
61761;BME280;47664;51.660;-0.100;2022-11-18T02:48:58;98676.21;;;7.74;64.77
61761;BME280;47664;51.660;-0.100;2022-11-18T02:51:28;98676.55;;;7.53;64.88
61761;BME280;47664;51.660;-0.100;2022-11-18T02:54:05;98680.28;;;7.07;65.58
61761;BME280;47664;51.660;-0.100;2022-11-18T02:56:40;98685.40;;;7.24;65.41
61761;BME280;47664;51.660;-0.100;2022-11-18T02:59:16;98680.12;;;7.35;64.67
61761;BME280;47664;51.660;-0.100;2022-11-18T03:01:48;98683.22;;;7.26;65.19
61761;BME280;47664;51.660;-0.100;2022-11-18T03:04:22;98687.43;;;7.38;65.08
61761;BME280;47664;51.660;-0.100;2022-11-18T03:06:58;98694.39;;;7.31;64.56
61761;BME280;47664;51.660;-0.100;2022-11-18T03:09:34;98695.41;;;7.66;64.11
61761;BME280;47664;51.660;-0.100;2022-11-18T03:12:16;98698.34;;;7.99;63.40
61761;BME280;47664;51.660;-0.100;2022-11-18T03:14:50;98704.20;;;7.44;63.95
61761;BME280;47664;51.660;-0.100;2022-11-18T03:17:31;98708.55;;;7.51;62.92
61761;BME280;47664;51.660;-0.100;2022-11-18T03:20:08;98711.93;;;7.43;63.90
61761;BME280;47664;51.660;-0.100;2022-11-18T03:22:40;98711.27;;;7.23;64.19
61761;BME280;47664;51.660;-0.100;2022-11-18T03:25:15;98709.39;;;7.39;63.37
61761;BME280;47664;51.660;-0.100;2022-11-18T03:27:49;98717.42;;;7.38;64.19
61761;BME280;47664;51.660;-0.100;2022-11-18T03:30:26;98713.94;;;7.12;64.55
61761;BME280;47664;51.660;-0.100;2022-11-18T03:33:01;98722.37;;;7.07;64.44
61761;BME280;47664;51.660;-0.100;2022-11-18T03:35:43;98726.88;;;7.00;64.28
61761;BME280;47664;51.660;-0.100;2022-11-18T03:38:20;98728.22;;;6.86;64.36
61761;BME280;47664;51.660;-0.100;2022-11-18T03:40:54;98729.67;;;7.16;64.46
61761;BME280;47664;51.660;-0.100;2022-11-18T03:43:30;98734.47;;;7.06;64.96
61761;BME280;47664;51.660;-0.100;2022-11-18T03:46:06;98742.21;;;7.10;65.64
61761;BME280;47664;51.660;-0.100;2022-11-18T03:48:43;98742.30;;;7.15;64.67
61761;BME280;47664;51.660;-0.100;2022-11-18T03:51:16;98744.58;;;7.17;65.03
61761;BME280;47664;51.660;-0.100;2022-11-18T03:53:51;98746.88;;;6.96;65.25
61761;BME280;47664;51.660;-0.100;2022-11-18T03:56:23;98748.12;;;7.14;65.12
61761;BME280;47664;51.660;-0.100;2022-11-18T03:58:59;98755.03;;;7.61;65.30
61761;BME280;47664;51.660;-0.100;2022-11-18T04:01:32;98757.28;;;6.75;66.18
61761;BME280;47664;51.660;-0.100;2022-11-18T04:04:06;98763.24;;;6.96;65.88
61761;BME280;47664;51.660;-0.100;2022-11-18T04:06:38;98771.29;;;6.41;66.42
61761;BME280;47664;51.660;-0.100;2022-11-18T04:09:17;98771.70;;;7.02;65.82
61761;BME280;47664;51.660;-0.100;2022-11-18T04:11:57;98778.80;;;6.98;65.75
61761;BME280;47664;51.660;-0.100;2022-11-18T04:14:32;98782.81;;;7.08;65.61
61761;BME280;47664;51.660;-0.100;2022-11-18T04:17:07;98782.18;;;6.72;65.11
61761;BME280;47664;51.660;-0.100;2022-11-18T04:19:40;98790.22;;;6.97;65.84
61761;BME280;47664;51.660;-0.100;2022-11-18T04:22:14;98791.00;;;7.35;65.30
61761;BME280;47664;51.660;-0.100;2022-11-18T04:24:46;98792.32;;;7.04;64.71
61761;BME280;47664;51.660;-0.100;2022-11-18T04:27:18;98798.45;;;7.13;64.89
61761;BME280;47664;51.660;-0.100;2022-11-18T04:29:50;98802.11;;;6.84;65.02
61761;BME280;47664;51.660;-0.100;2022-11-18T04:32:22;98808.85;;;7.07;65.17
61761;BME280;47664;51.660;-0.100;2022-11-18T04:34:54;98808.24;;;7.25;64.31
61761;BME280;47664;51.660;-0.100;2022-11-18T04:37:26;98815.14;;;7.24;63.93
61761;BME280;47664;51.660;-0.100;2022-11-18T04:39:58;98817.30;;;7.44;63.63
61761;BME280;47664;51.660;-0.100;2022-11-18T04:42:31;98819.64;;;7.68;63.36
61761;BME280;47664;51.660;-0.100;2022-11-18T04:45:04;98821.87;;;7.25;63.33
61761;BME280;47664;51.660;-0.100;2022-11-18T04:47:36;98827.75;;;6.89;64.68
61761;BME280;47664;51.660;-0.100;2022-11-18T04:50:09;98831.09;;;7.26;64.91
61761;BME280;47664;51.660;-0.100;2022-11-18T04:52:41;98831.99;;;6.78;64.78
61761;BME280;47664;51.660;-0.100;2022-11-18T04:55:13;98836.60;;;7.15;65.36
61761;BME280;47664;51.660;-0.100;2022-11-18T04:57:45;98842.98;;;6.84;64.82
61761;BME280;47664;51.660;-0.100;2022-11-18T05:00:17;98845.94;;;7.14;64.69
61761;BME280;47664;51.660;-0.100;2022-11-18T05:02:50;98846.36;;;7.05;64.67
61761;BME280;47664;51.660;-0.100;2022-11-18T05:05:22;98853.38;;;6.88;65.05
61761;BME280;47664;51.660;-0.100;2022-11-18T05:07:55;98854.49;;;6.74;64.89
61761;BME280;47664;51.660;-0.100;2022-11-18T05:10:27;98857.19;;;6.76;64.29
61761;BME280;47664;51.660;-0.100;2022-11-18T05:12:59;98863.30;;;7.30;63.98
61761;BME280;47664;51.660;-0.100;2022-11-18T05:15:31;98865.40;;;6.91;64.03
61761;BME280;47664;51.660;-0.100;2022-11-18T05:18:03;98871.69;;;7.11;63.59
61761;BME280;47664;51.660;-0.100;2022-11-18T05:20:36;98877.50;;;7.23;63.26
61761;BME280;47664;51.660;-0.100;2022-11-18T05:23:08;98881.46;;;7.20;63.13
61761;BME280;47664;51.660;-0.100;2022-11-18T05:25:41;98884.74;;;7.75;62.89
61761;BME280;47664;51.660;-0.100;2022-11-18T05:28:13;98884.98;;;7.09;63.72
61761;BME280;47664;51.660;-0.100;2022-11-18T05:30:46;98889.19;;;7.24;63.71
61761;BME280;47664;51.660;-0.100;2022-11-18T05:33:18;98893.62;;;7.49;62.72
61761;BME280;47664;51.660;-0.100;2022-11-18T05:35:49;98899.24;;;7.37;62.90
61761;BME280;47664;51.660;-0.100;2022-11-18T05:38:22;98898.84;;;7.31;62.70
61761;BME280;47664;51.660;-0.100;2022-11-18T05:40:54;98902.46;;;7.26;62.76
61761;BME280;47664;51.660;-0.100;2022-11-18T05:43:26;98905.52;;;7.25;62.96
61761;BME280;47664;51.660;-0.100;2022-11-18T05:45:58;98907.37;;;7.18;63.11
61761;BME280;47664;51.660;-0.100;2022-11-18T05:48:30;98909.34;;;7.56;62.66
61761;BME280;47664;51.660;-0.100;2022-11-18T05:51:03;98914.12;;;7.67;61.94
61761;BME280;47664;51.660;-0.100;2022-11-18T05:53:35;98920.57;;;7.36;61.82
61761;BME280;47664;51.660;-0.100;2022-11-18T05:56:07;98931.11;;;7.86;62.03
61761;BME280;47664;51.660;-0.100;2022-11-18T05:58:44;98934.45;;;7.90;61.50
61761;BME280;47664;51.660;-0.100;2022-11-18T06:01:19;98933.14;;;7.63;61.51
61761;BME280;47664;51.660;-0.100;2022-11-18T06:03:53;98940.43;;;7.84;61.81
61761;BME280;47664;51.660;-0.100;2022-11-18T06:06:26;98945.36;;;7.84;61.17
61761;BME280;47664;51.660;-0.100;2022-11-18T06:08:58;98946.53;;;7.56;62.13
61761;BME280;47664;51.660;-0.100;2022-11-18T06:11:35;98953.57;;;7.18;62.27
61761;BME280;47664;51.660;-0.100;2022-11-18T06:14:12;98958.49;;;7.54;61.65
61761;BME280;47664;51.660;-0.100;2022-11-18T06:16:45;98967.72;;;7.82;61.75
61761;BME280;47664;51.660;-0.100;2022-11-18T06:19:19;98968.84;;;7.57;61.62
61761;BME280;47664;51.660;-0.100;2022-11-18T06:21:52;98972.90;;;7.86;61.27
61761;BME280;47664;51.660;-0.100;2022-11-18T06:24:25;98980.96;;;8.11;61.44
61761;BME280;47664;51.660;-0.100;2022-11-18T06:26:57;98985.36;;;7.72;61.72
61761;BME280;47664;51.660;-0.100;2022-11-18T06:29:31;98988.33;;;7.74;62.30
61761;BME280;47664;51.660;-0.100;2022-11-18T06:32:03;98993.83;;;7.62;62.15
61761;BME280;47664;51.660;-0.100;2022-11-18T06:34:35;98998.76;;;7.68;61.87
61761;BME280;47664;51.660;-0.100;2022-11-18T06:37:11;99000.92;;;7.49;62.01
61761;BME280;47664;51.660;-0.100;2022-11-18T06:39:44;99007.75;;;7.63;62.31
61761;BME280;47664;51.660;-0.100;2022-11-18T06:42:16;99014.48;;;7.08;63.46
61761;BME280;47664;51.660;-0.100;2022-11-18T06:44:48;99022.76;;;7.30;64.08
61761;BME280;47664;51.660;-0.100;2022-11-18T06:47:20;99029.43;;;7.09;63.66
61761;BME280;47664;51.660;-0.100;2022-11-18T06:49:52;99033.54;;;7.20;63.71
61761;BME280;47664;51.660;-0.100;2022-11-18T06:52:26;99039.98;;;7.55;62.86
61761;BME280;47664;51.660;-0.100;2022-11-18T06:54:58;99046.00;;;7.72;62.39
61761;BME280;47664;51.660;-0.100;2022-11-18T06:57:30;99051.30;;;7.74;62.14
61761;BME280;47664;51.660;-0.100;2022-11-18T07:00:03;99055.48;;;7.43;63.12
61761;BME280;47664;51.660;-0.100;2022-11-18T07:02:36;99058.96;;;7.32;63.41
61761;BME280;47664;51.660;-0.100;2022-11-18T07:05:08;99063.41;;;7.51;62.69
61761;BME280;47664;51.660;-0.100;2022-11-18T07:07:41;99070.43;;;7.84;62.10
61761;BME280;47664;51.660;-0.100;2022-11-18T07:10:13;99079.06;;;7.60;63.19
61761;BME280;47664;51.660;-0.100;2022-11-18T07:12:46;99086.46;;;7.51;63.25
61761;BME280;47664;51.660;-0.100;2022-11-18T07:15:18;99093.72;;;7.41;63.01
61761;BME280;47664;51.660;-0.100;2022-11-18T07:17:50;99105.49;;;7.18;63.59
61761;BME280;47664;51.660;-0.100;2022-11-18T07:20:22;99107.84;;;7.46;63.82
61761;BME280;47664;51.660;-0.100;2022-11-18T07:22:56;99112.46;;;7.25;63.66
61761;BME280;47664;51.660;-0.100;2022-11-18T07:25:28;99115.28;;;7.38;63.76
61761;BME280;47664;51.660;-0.100;2022-11-18T07:28:02;99121.46;;;6.99;63.56
61761;BME280;47664;51.660;-0.100;2022-11-18T07:30:34;99119.21;;;7.60;62.93
61761;BME280;47664;51.660;-0.100;2022-11-18T07:33:06;99126.59;;;7.60;62.94
61761;BME280;47664;51.660;-0.100;2022-11-18T07:35:39;99135.36;;;7.03;63.95
61761;BME280;47664;51.660;-0.100;2022-11-18T07:38:11;99144.24;;;7.07;64.17
61761;BME280;47664;51.660;-0.100;2022-11-18T07:40:43;99147.86;;;7.23;64.49
61761;BME280;47664;51.660;-0.100;2022-11-18T07:43:16;99150.03;;;7.39;63.89
61761;BME280;47664;51.660;-0.100;2022-11-18T07:45:48;99151.48;;;7.83;62.45
61761;BME280;47664;51.660;-0.100;2022-11-18T07:48:20;99161.60;;;7.67;62.92
61761;BME280;47664;51.660;-0.100;2022-11-18T07:50:52;99162.22;;;7.69;62.31
61761;BME280;47664;51.660;-0.100;2022-11-18T07:53:24;99171.77;;;7.24;63.77
61761;BME280;47664;51.660;-0.100;2022-11-18T07:55:58;99171.11;;;7.43;64.48
61761;BME280;47664;51.660;-0.100;2022-11-18T07:58:31;99180.03;;;7.14;64.42
61761;BME280;47664;51.660;-0.100;2022-11-18T08:01:05;99183.45;;;7.43;64.40
61761;BME280;47664;51.660;-0.100;2022-11-18T08:03:38;99188.08;;;7.83;63.28
61761;BME280;47664;51.660;-0.100;2022-11-18T08:06:14;99193.93;;;7.43;64.21
61761;BME280;47664;51.660;-0.100;2022-11-18T08:08:46;99195.54;;;7.62;63.54
61761;BME280;47664;51.660;-0.100;2022-11-18T08:11:20;99199.16;;;7.88;63.72
61761;BME280;47664;51.660;-0.100;2022-11-18T08:13:52;99202.22;;;7.69;62.92
61761;BME280;47664;51.660;-0.100;2022-11-18T08:16:25;99210.82;;;7.59;63.21
61761;BME280;47664;51.660;-0.100;2022-11-18T08:18:58;99214.90;;;7.73;64.95
61761;BME280;47664;51.660;-0.100;2022-11-18T08:21:31;99217.33;;;7.83;64.02
61761;BME280;47664;51.660;-0.100;2022-11-18T08:24:03;99222.39;;;7.80;63.69
61761;BME280;47664;51.660;-0.100;2022-11-18T08:26:36;99226.73;;;7.70;64.19
61761;BME280;47664;51.660;-0.100;2022-11-18T08:29:08;99227.67;;;7.62;64.39
61761;BME280;47664;51.660;-0.100;2022-11-18T08:31:40;99228.96;;;7.63;63.99
61761;BME280;47664;51.660;-0.100;2022-11-18T08:34:12;99231.36;;;7.78;63.80
61761;BME280;47664;51.660;-0.100;2022-11-18T08:36:45;99240.48;;;7.60;63.90
61761;BME280;47664;51.660;-0.100;2022-11-18T08:39:17;99248.22;;;7.98;63.69
61761;BME280;47664;51.660;-0.100;2022-11-18T08:41:49;99247.50;;;7.79;63.10
61761;BME280;47664;51.660;-0.100;2022-11-18T08:44:22;99253.94;;;8.00;62.90
61761;BME280;47664;51.660;-0.100;2022-11-18T08:46:54;99255.69;;;8.01;63.44
61761;BME280;47664;51.660;-0.100;2022-11-18T08:49:26;99256.80;;;7.30;64.64
61761;BME280;47664;51.660;-0.100;2022-11-18T08:51:59;99260.44;;;7.80;64.14
61761;BME280;47664;51.660;-0.100;2022-11-18T08:54:31;99261.08;;;7.51;64.45
61761;BME280;47664;51.660;-0.100;2022-11-18T08:57:03;99266.28;;;7.40;64.65
61761;BME280;47664;51.660;-0.100;2022-11-18T08:59:35;99268.88;;;7.51;65.29
61761;BME280;47664;51.660;-0.100;2022-11-18T09:02:11;99266.22;;;7.37;65.72
61761;BME280;47664;51.660;-0.100;2022-11-18T09:04:45;99265.77;;;6.78;66.62
61761;BME280;47664;51.660;-0.100;2022-11-18T09:07:17;99268.31;;;6.98;66.89
61761;BME280;47664;51.660;-0.100;2022-11-18T09:09:49;99272.95;;;7.11;66.39
61761;BME280;47664;51.660;-0.100;2022-11-18T09:12:22;99278.56;;;7.02;66.25
61761;BME280;47664;51.660;-0.100;2022-11-18T09:14:54;99280.69;;;7.20;66.70
61761;BME280;47664;51.660;-0.100;2022-11-18T09:17:26;99281.56;;;7.50;65.59
61761;BME280;47664;51.660;-0.100;2022-11-18T09:19:58;99290.08;;;7.52;64.65
61761;BME280;47664;51.660;-0.100;2022-11-18T09:22:30;99294.70;;;7.31;65.93
61761;BME280;47664;51.660;-0.100;2022-11-18T09:25:02;99298.29;;;7.25;66.01
61761;BME280;47664;51.660;-0.100;2022-11-18T09:27:35;99304.60;;;7.33;66.23
61761;BME280;47664;51.660;-0.100;2022-11-18T09:30:08;99306.70;;;7.14;66.07
61761;BME280;47664;51.660;-0.100;2022-11-18T09:32:40;99308.55;;;7.39;65.23
61761;BME280;47664;51.660;-0.100;2022-11-18T09:35:12;99313.00;;;7.08;66.66
61761;BME280;47664;51.660;-0.100;2022-11-18T09:37:44;99320.67;;;7.41;65.60
61761;BME280;47664;51.660;-0.100;2022-11-18T09:40:15;99320.39;;;7.62;65.54
61761;BME280;47664;51.660;-0.100;2022-11-18T09:42:53;99323.76;;;7.40;65.21
61761;BME280;47664;51.660;-0.100;2022-11-18T09:45:30;99323.29;;;7.34;65.36
61761;BME280;47664;51.660;-0.100;2022-11-18T09:48:12;99329.59;;;7.57;65.11
61761;BME280;47664;51.660;-0.100;2022-11-18T09:50:46;99330.80;;;7.62;64.97
61761;BME280;47664;51.660;-0.100;2022-11-18T09:53:18;99337.99;;;7.71;64.98
61761;BME280;47664;51.660;-0.100;2022-11-18T09:55:51;99343.15;;;7.75;64.71
61761;BME280;47664;51.660;-0.100;2022-11-18T09:58:27;99342.96;;;8.02;64.60
61761;BME280;47664;51.660;-0.100;2022-11-18T10:01:03;99351.19;;;7.89;64.03
61761;BME280;47664;51.660;-0.100;2022-11-18T10:03:42;99353.11;;;8.33;63.69
61761;BME280;47664;51.660;-0.100;2022-11-18T10:06:19;99354.18;;;8.22;63.69
61761;BME280;47664;51.660;-0.100;2022-11-18T10:08:58;99360.45;;;8.11;63.70
61761;BME280;47664;51.660;-0.100;2022-11-18T10:11:33;99368.59;;;8.47;62.77
61761;BME280;47664;51.660;-0.100;2022-11-18T10:14:14;99372.98;;;8.20;62.52
61761;BME280;47664;51.660;-0.100;2022-11-18T10:16:51;99378.62;;;8.89;61.65
61761;BME280;47664;51.660;-0.100;2022-11-18T10:19:28;99384.51;;;8.58;62.46
61761;BME280;47664;51.660;-0.100;2022-11-18T10:22:06;99386.47;;;8.74;61.83
61761;BME280;47664;51.660;-0.100;2022-11-18T10:24:48;99392.44;;;8.54;62.56
61761;BME280;47664;51.660;-0.100;2022-11-18T10:27:26;99391.50;;;8.49;62.69
61761;BME280;47664;51.660;-0.100;2022-11-18T10:30:06;99393.54;;;8.68;62.26
61761;BME280;47664;51.660;-0.100;2022-11-18T10:32:52;99399.33;;;8.62;62.55
61761;BME280;47664;51.660;-0.100;2022-11-18T10:35:24;99398.08;;;8.83;62.43
61761;BME280;47664;51.660;-0.100;2022-11-18T10:38:00;99396.98;;;8.86;62.01
61761;BME280;47664;51.660;-0.100;2022-11-18T10:40:33;99400.95;;;8.63;61.84
61761;BME280;47664;51.660;-0.100;2022-11-18T10:43:08;99399.11;;;8.99;61.62
61761;BME280;47664;51.660;-0.100;2022-11-18T10:45:41;99401.67;;;8.91;61.43
61761;BME280;47664;51.660;-0.100;2022-11-18T10:48:15;99403.05;;;8.74;61.00
61761;BME280;47664;51.660;-0.100;2022-11-18T10:50:50;99408.08;;;9.28;61.15
61761;BME280;47664;51.660;-0.100;2022-11-18T10:53:29;99413.67;;;9.30;61.19
61761;BME280;47664;51.660;-0.100;2022-11-18T10:56:03;99418.50;;;8.65;61.73
61761;BME280;47664;51.660;-0.100;2022-11-18T10:58:41;99415.68;;;8.99;61.24
61761;BME280;47664;51.660;-0.100;2022-11-18T11:01:19;99415.02;;;9.09;61.34
61761;BME280;47664;51.660;-0.100;2022-11-18T11:03:57;99417.27;;;9.15;61.23
61761;BME280;47664;51.660;-0.100;2022-11-18T11:06:30;99416.45;;;9.31;60.66
61761;BME280;47664;51.660;-0.100;2022-11-18T11:09:07;99411.76;;;9.76;59.92
61761;BME280;47664;51.660;-0.100;2022-11-18T11:11:40;99417.19;;;9.46;60.17
61761;BME280;47664;51.660;-0.100;2022-11-18T11:14:20;99419.74;;;9.07;60.33
61761;BME280;47664;51.660;-0.100;2022-11-18T11:16:59;99420.01;;;9.33;60.82
61761;BME280;47664;51.660;-0.100;2022-11-18T11:19:37;99420.46;;;9.39;60.15
61761;BME280;47664;51.660;-0.100;2022-11-18T11:22:09;99425.77;;;9.69;60.15
61761;BME280;47664;51.660;-0.100;2022-11-18T11:24:42;99427.72;;;9.80;59.56
61761;BME280;47664;51.660;-0.100;2022-11-18T11:27:20;99428.38;;;9.44;60.01
61761;BME280;47664;51.660;-0.100;2022-11-18T11:30:22;99432.42;;;9.64;59.75
61761;BME280;47664;51.660;-0.100;2022-11-18T11:33:29;99438.99;;;9.33;59.82
61761;BME280;47664;51.660;-0.100;2022-11-18T11:36:08;99442.84;;;9.56;60.10
61761;BME280;47664;51.660;-0.100;2022-11-18T11:38:51;99449.31;;;9.67;60.05
61761;BME280;47664;51.660;-0.100;2022-11-18T11:41:29;99446.19;;;9.55;59.12
61761;BME280;47664;51.660;-0.100;2022-11-18T11:44:11;99450.97;;;9.58;58.69
61761;BME280;47664;51.660;-0.100;2022-11-18T11:46:52;99451.54;;;9.56;58.29
61761;BME280;47664;51.660;-0.100;2022-11-18T11:49:28;99455.49;;;9.70;58.86
61761;BME280;47664;51.660;-0.100;2022-11-18T11:52:02;99460.93;;;9.02;59.12
61761;BME280;47664;51.660;-0.100;2022-11-18T11:54:41;99462.62;;;9.40;59.44
61761;BME280;47664;51.660;-0.100;2022-11-18T11:57:17;99468.93;;;9.25;58.13
61761;BME280;47664;51.660;-0.100;2022-11-18T11:59:55;99469.54;;;9.35;58.22
61761;BME280;47664;51.660;-0.100;2022-11-18T12:02:53;99476.86;;;9.33;58.80
61761;BME280;47664;51.660;-0.100;2022-11-18T12:05:28;99476.42;;;9.25;58.71
61761;BME280;47664;51.660;-0.100;2022-11-18T12:08:05;99474.78;;;9.19;58.77
61761;BME280;47664;51.660;-0.100;2022-11-18T12:10:42;99479.17;;;9.01;58.28
61761;BME280;47664;51.660;-0.100;2022-11-18T12:13:23;99483.67;;;9.32;58.77
61761;BME280;47664;51.660;-0.100;2022-11-18T12:16:03;99483.56;;;9.26;58.54
61761;BME280;47664;51.660;-0.100;2022-11-18T12:18:39;99484.30;;;9.23;58.98
61761;BME280;47664;51.660;-0.100;2022-11-18T12:21:50;99484.82;;;9.42;58.30
61761;BME280;47664;51.660;-0.100;2022-11-18T12:24:29;99488.49;;;9.25;57.84
61761;BME280;47664;51.660;-0.100;2022-11-18T12:27:04;99490.57;;;9.27;58.65
61761;BME280;47664;51.660;-0.100;2022-11-18T12:29:39;99495.56;;;9.56;58.85
61761;BME280;47664;51.660;-0.100;2022-11-18T12:32:29;99497.79;;;9.38;58.36
61761;BME280;47664;51.660;-0.100;2022-11-18T12:35:19;99500.75;;;9.84;58.68
61761;BME280;47664;51.660;-0.100;2022-11-18T12:38:03;99496.00;;;9.72;56.89
61761;BME280;47664;51.660;-0.100;2022-11-18T12:40:39;99500.50;;;9.56;57.02
61761;BME280;47664;51.660;-0.100;2022-11-18T12:44:04;99505.11;;;10.10;57.19
61761;BME280;47664;51.660;-0.100;2022-11-18T12:46:49;99510.39;;;9.86;57.60
61761;BME280;47664;51.660;-0.100;2022-11-18T12:50:46;99510.27;;;10.12;57.80
61761;BME280;47664;51.660;-0.100;2022-11-18T12:53:29;99509.80;;;9.68;57.54
61761;BME280;47664;51.660;-0.100;2022-11-18T12:56:11;99517.86;;;9.58;57.58
61761;BME280;47664;51.660;-0.100;2022-11-18T12:58:53;99524.20;;;9.49;57.15
61761;BME280;47664;51.660;-0.100;2022-11-18T13:01:27;99530.93;;;9.65;58.28
61761;BME280;47664;51.660;-0.100;2022-11-18T13:04:06;99528.82;;;9.89;57.70
61761;BME280;47664;51.660;-0.100;2022-11-18T13:06:40;99535.29;;;9.96;57.65
61761;BME280;47664;51.660;-0.100;2022-11-18T13:09:14;99535.91;;;10.37;57.50
61761;BME280;47664;51.660;-0.100;2022-11-18T13:11:46;99533.80;;;9.92;57.71
61761;BME280;47664;51.660;-0.100;2022-11-18T13:14:23;99542.99;;;9.30;57.16
61761;BME280;47664;51.660;-0.100;2022-11-18T13:16:56;99545.05;;;8.99;59.31
61761;BME280;47664;51.660;-0.100;2022-11-18T13:19:29;99547.86;;;9.32;58.31
61761;BME280;47664;51.660;-0.100;2022-11-18T13:22:02;99553.33;;;9.44;57.88
61761;BME280;47664;51.660;-0.100;2022-11-18T13:24:41;99559.87;;;9.71;58.01
61761;BME280;47664;51.660;-0.100;2022-11-18T13:27:19;99562.13;;;9.58;57.27
61761;BME280;47664;51.660;-0.100;2022-11-18T13:29:58;99561.98;;;9.45;56.90
61761;BME280;47664;51.660;-0.100;2022-11-18T13:32:32;99560.89;;;9.62;57.60
61761;BME280;47664;51.660;-0.100;2022-11-18T13:35:10;99559.67;;;9.54;57.17
61761;BME280;47664;51.660;-0.100;2022-11-18T13:37:48;99561.84;;;10.02;56.30
61761;BME280;47664;51.660;-0.100;2022-11-18T13:40:24;99565.91;;;10.01;55.83
61761;BME280;47664;51.660;-0.100;2022-11-18T13:42:57;99570.84;;;10.00;57.11